Siedlce, Poland
Current Conditions -  °F | °C
As of 9:00 PM on Friday 21 Nov 2014 (Local Time) from EPWA Reporting Station
Drizzle Drizzle  
Wind Chill: 36°   Ceiling: 900
Heat Index: 36°   Visibility: 3mi
Dew Point: 36°   Wind: 2mph
Humidity: 100%   Direction: 300°WNW
Pressure: 30.33"   Gusts: NA
Location:  52.17°N, 22.28°E
Report Text: EPWA 211900Z 30002KT 5000 -DZ BR SCT005 BKN009 02/02 Q1027 TEMPO BKN005
Loading
Personal Weather Stations






























Interactive Weather Map New forecast layout! Learn more

10-Day Weather Forecast

Advertisements
Track Severe Weather on mobile